createdAt,value
2022-09-23T00:01:21.480Z,3.10
2022-09-23T00:03:50.498Z,3.05
2022-09-23T00:06:20.387Z,2.80
2022-09-23T00:08:49.806Z,2.85
2022-09-23T00:11:22.745Z,3.00
2022-09-23T00:13:53.330Z,2.88
2022-09-23T00:16:28.661Z,2.97
2022-09-23T00:18:56.035Z,2.92
2022-09-23T00:21:23.400Z,2.67
2022-09-23T00:23:50.738Z,2.72
2022-09-23T00:26:19.719Z,2.67
2022-09-23T00:28:48.161Z,3.13
2022-09-23T00:31:21.779Z,2.72
2022-09-23T00:33:56.889Z,2.72
2022-09-23T00:36:24.987Z,3.35
2022-09-23T00:38:52.502Z,3.42
2022-09-23T00:41:20.137Z,3.50
2022-09-23T00:43:59.747Z,3.97
2022-09-23T00:46:37.252Z,3.78
2022-09-23T00:49:12.813Z,3.13
2022-09-23T00:51:54.589Z,3.70
2022-09-23T00:54:24.140Z,3.65
2022-09-23T00:56:51.659Z,3.78
2022-09-23T00:59:19.725Z,3.70
2022-09-23T01:01:48.761Z,3.30
2022-09-23T01:04:16.318Z,3.35
2022-09-23T01:06:43.393Z,3.28
2022-09-23T01:09:10.688Z,3.55
2022-09-23T01:11:43.414Z,3.33
2022-09-23T01:14:49.223Z,3.63
2022-09-23T01:17:49.253Z,3.53
2022-09-23T01:20:28.192Z,3.45
2022-09-23T01:23:04.981Z,3.28
2022-09-23T01:26:15.490Z,3.53
2022-09-23T01:29:27.410Z,3.15
2022-09-23T01:32:08.436Z,3.10
2022-09-23T01:34:47.983Z,3.40
2022-09-23T01:37:32.132Z,3.15
2022-09-23T01:40:18.738Z,2.92
2022-09-23T01:43:05.678Z,2.90
2022-09-23T01:45:41.617Z,2.92
2022-09-23T01:48:34.698Z,3.20
2022-09-23T01:51:08.703Z,3.10
2022-09-23T01:54:00.741Z,2.80
2022-09-23T01:56:31.511Z,3.17
2022-09-23T01:59:17.817Z,2.97
2022-09-23T02:02:15.531Z,3.42
2022-09-23T02:05:05.994Z,2.95
2022-09-23T02:07:46.482Z,3.30
2022-09-23T02:10:21.825Z,3.40
2022-09-23T02:12:51.134Z,3.30
2022-09-23T02:15:23.089Z,3.00
2022-09-23T02:17:54.177Z,3.30
2022-09-23T02:20:30.264Z,3.20
2022-09-23T02:23:19.746Z,3.33
2022-09-23T02:26:12.374Z,3.15
2022-09-23T02:29:00.730Z,3.20
2022-09-23T02:31:55.248Z,3.42
2022-09-23T02:34:46.949Z,3.10
2022-09-23T02:37:29.112Z,3.10
2022-09-23T02:40:23.781Z,2.78
2022-09-23T02:43:12.719Z,3.38
2022-09-23T02:45:39.909Z,3.60
2022-09-23T02:48:14.976Z,3.22
2022-09-23T02:50:42.826Z,3.38
2022-09-23T02:53:10.150Z,3.05
2022-09-23T02:55:37.335Z,3.55
2022-09-23T02:58:05.661Z,3.42
2022-09-23T03:00:56.111Z,3.30
2022-09-23T03:03:47.321Z,3.50
2022-09-23T03:06:27.820Z,3.50
2022-09-23T03:09:09.417Z,3.05
2022-09-23T03:11:40.341Z,3.33
2022-09-23T03:14:24.040Z,3.35
2022-09-23T03:17:03.711Z,3.58
2022-09-23T03:20:07.554Z,3.50
2022-09-23T03:25:12.375Z,3.92
2022-09-23T03:27:42.685Z,4.30
2022-09-23T03:30:11.077Z,4.22
2022-09-23T03:32:39.449Z,4.68
2022-09-23T03:35:07.108Z,4.63
2022-09-23T03:37:46.725Z,4.72
2022-09-23T03:40:20.894Z,3.70
2022-09-23T03:42:49.273Z,3.53
2022-09-23T03:45:20.683Z,3.25
2022-09-23T03:47:48.027Z,3.20
2022-09-23T03:50:17.497Z,3.17
2022-09-23T03:52:44.825Z,3.13
2022-09-23T03:55:12.109Z,3.03
2022-09-23T03:57:39.876Z,3.22
2022-09-23T04:00:08.252Z,3.30
2022-09-23T04:02:41.877Z,3.22
2022-09-23T04:05:12.497Z,3.33
2022-09-23T04:07:40.577Z,3.65
2022-09-23T04:10:08.352Z,3.25
2022-09-23T04:12:35.430Z,3.72
2022-09-23T04:15:02.564Z,3.80
2022-09-23T04:17:30.375Z,3.10
2022-09-23T04:19:57.425Z,3.50
2022-09-23T04:22:24.754Z,3.10
2022-09-23T04:24:52.321Z,3.22
2022-09-23T04:27:19.805Z,3.47
2022-09-23T04:29:46.906Z,3.33
2022-09-23T04:32:14.331Z,3.08
2022-09-23T04:34:41.455Z,3.10
2022-09-23T04:37:08.717Z,2.97
2022-09-23T04:39:35.870Z,3.13
2022-09-23T04:42:04.261Z,2.88
2022-09-23T04:44:31.410Z,3.10
2022-09-23T04:46:58.912Z,2.80
2022-09-23T04:49:26.391Z,3.50
2022-09-23T04:51:54.514Z,3.30
2022-09-23T04:54:21.646Z,2.70
2022-09-23T04:56:48.861Z,3.33
2022-09-23T04:59:15.994Z,3.50
2022-09-23T05:01:43.815Z,3.97
2022-09-23T05:04:13.543Z,2.97
2022-09-23T05:06:40.722Z,3.10
2022-09-23T05:09:09.112Z,2.83
2022-09-23T05:11:36.490Z,3.50
2022-09-23T05:14:03.904Z,3.05
2022-09-23T05:16:31.185Z,2.80
2022-09-23T05:18:58.423Z,4.13
2022-09-23T05:21:30.468Z,4.35
2022-09-23T05:24:00.860Z,5.13
2022-09-23T05:26:31.079Z,5.00
2022-09-23T05:28:59.152Z,4.32
2022-09-23T05:31:29.268Z,4.45
2022-09-23T05:34:02.733Z,4.15
2022-09-23T05:39:05.563Z,4.40
2022-09-23T05:41:34.111Z,4.25
2022-09-23T05:44:01.601Z,4.22
2022-09-23T05:46:30.708Z,5.15
2022-09-23T05:49:02.596Z,4.57
2022-09-23T05:51:32.680Z,4.90
2022-09-23T05:54:03.088Z,5.38
2022-09-23T05:56:31.504Z,4.97
2022-09-23T05:59:00.737Z,4.95
2022-09-23T06:01:32.460Z,5.30
2022-09-23T06:04:01.173Z,5.07
2022-09-23T06:06:29.759Z,5.60
2022-09-23T06:08:59.452Z,5.63
2022-09-23T06:11:27.493Z,5.57
2022-09-23T06:13:56.198Z,4.38
2022-09-23T06:16:23.482Z,4.60
2022-09-23T06:18:50.577Z,4.32
2022-09-23T06:21:18.630Z,3.35
2022-09-23T06:23:46.490Z,3.20
2022-09-23T06:26:15.664Z,3.65
2022-09-23T06:28:44.271Z,3.22
2022-09-23T06:31:14.401Z,2.90
2022-09-23T06:33:43.231Z,2.38
2022-09-23T06:36:11.509Z,2.47
2022-09-23T06:38:44.966Z,2.30
2022-09-23T06:41:13.704Z,1.98
2022-09-23T06:43:41.070Z,2.17
2022-09-23T06:46:11.078Z,1.90
2022-09-23T06:48:40.823Z,1.85
2022-09-23T06:53:41.108Z,2.13
2022-09-23T06:56:11.615Z,2.38
2022-09-23T06:58:40.234Z,1.90
2022-09-23T07:01:09.819Z,2.15
2022-09-23T07:03:37.387Z,2.03
2022-09-23T07:06:05.993Z,1.95
2022-09-23T07:08:36.328Z,1.70
2022-09-23T07:11:06.955Z,1.60
2022-09-23T07:13:35.124Z,2.15
2022-09-23T07:16:02.453Z,2.33
2022-09-23T07:18:36.777Z,1.80
2022-09-23T07:21:15.583Z,2.00
2022-09-23T07:23:44.436Z,2.22
2022-09-23T07:26:12.272Z,3.95
2022-09-23T07:28:39.940Z,2.30
2022-09-23T07:31:10.437Z,1.83
2022-09-23T07:33:40.043Z,2.25
2022-09-23T07:36:10.605Z,2.47
2022-09-23T07:38:41.505Z,2.40
2022-09-23T07:41:13.774Z,2.35
2022-09-23T07:43:41.510Z,2.33
2022-09-23T07:46:13.309Z,2.65
2022-09-23T07:48:42.023Z,2.50
2022-09-23T07:51:12.513Z,2.67
2022-09-23T07:53:40.267Z,3.00
2022-09-23T07:56:07.765Z,2.42
2022-09-23T07:58:35.271Z,2.70
2022-09-23T08:01:07.418Z,3.30
2022-09-23T08:03:35.563Z,3.30
2022-09-23T08:06:13.743Z,2.88
2022-09-23T08:08:43.880Z,3.50
2022-09-23T08:11:14.387Z,2.88
2022-09-23T08:13:42.656Z,3.25
2022-09-23T08:16:10.460Z,2.85
2022-09-23T08:18:37.695Z,3.40
2022-09-23T08:21:05.014Z,2.78
2022-09-23T08:23:33.758Z,2.50
2022-09-23T08:26:04.781Z,2.25
2022-09-23T08:28:34.001Z,2.47
2022-09-23T08:31:01.508Z,2.10
2022-09-23T08:33:29.138Z,2.40
2022-09-23T08:36:04.917Z,2.33
2022-09-23T08:38:32.706Z,2.40
2022-09-23T08:41:23.974Z,2.15
2022-09-23T08:43:57.953Z,1.98
2022-09-23T08:46:37.831Z,2.25
2022-09-23T08:49:07.963Z,2.25
2022-09-23T08:51:48.749Z,2.00
2022-09-23T08:54:18.423Z,2.20
2022-09-23T08:56:51.492Z,2.30
2022-09-23T08:59:32.254Z,1.92
2022-09-23T09:07:31.826Z,2.20
2022-09-23T09:10:21.477Z,2.17
2022-09-23T09:12:54.307Z,2.50
2022-09-23T09:15:25.205Z,2.35
2022-09-23T09:18:11.437Z,2.13
2022-09-23T09:20:48.323Z,2.10
2022-09-23T09:23:36.517Z,2.10
2022-09-23T09:26:06.041Z,2.10
2022-09-23T09:28:41.929Z,1.98
2022-09-23T09:31:15.197Z,2.15
2022-09-23T09:33:58.093Z,2.50
2022-09-23T09:36:54.213Z,2.20
2022-09-23T09:39:25.529Z,2.50
2022-09-23T09:41:55.644Z,2.33
2022-09-23T09:44:48.240Z,2.20
2022-09-23T09:47:56.920Z,1.60
2022-09-23T09:50:50.128Z,2.58
2022-09-23T09:53:29.595Z,2.30
2022-09-23T09:56:05.234Z,2.15
2022-09-23T09:58:56.639Z,2.72
2022-09-23T10:01:37.441Z,1.80
2022-09-23T10:04:19.958Z,1.95
2022-09-23T10:07:07.601Z,1.70
2022-09-23T10:09:39.324Z,1.80
2022-09-23T10:12:18.761Z,1.50
2022-09-23T10:14:51.777Z,1.70
2022-09-23T10:20:02.413Z,1.90
2022-09-23T10:22:37.611Z,1.67
2022-09-23T10:25:10.427Z,1.75
2022-09-23T10:27:38.983Z,1.58
2022-09-23T10:30:24.633Z,1.60
2022-09-23T10:32:55.142Z,1.77
2022-09-23T10:35:24.664Z,1.30
2022-09-23T10:37:56.947Z,1.50
2022-09-23T10:40:51.133Z,1.52
2022-09-23T10:44:16.991Z,1.95
2022-09-23T10:47:14.751Z,1.75
2022-09-23T10:50:11.459Z,1.55
2022-09-23T10:52:52.723Z,1.55
2022-09-23T10:55:47.035Z,1.70
2022-09-23T10:58:26.002Z,1.88
2022-09-23T11:01:05.613Z,1.58
2022-09-23T11:03:50.975Z,1.52
2022-09-23T11:06:47.623Z,1.65
2022-09-23T11:09:42.644Z,1.90
2022-09-23T11:12:35.666Z,1.90
2022-09-23T11:15:11.899Z,1.75
2022-09-23T11:17:48.440Z,1.40
2022-09-23T11:20:27.985Z,1.67
2022-09-23T11:23:22.515Z,1.50
2022-09-23T11:26:21.987Z,1.70
2022-09-23T11:29:24.349Z,2.10
2022-09-23T11:32:03.684Z,1.30
2022-09-23T11:34:51.206Z,1.83
2022-09-23T11:37:27.718Z,2.00
2022-09-23T11:40:19.853Z,1.38
2022-09-23T11:43:00.057Z,1.90
2022-09-23T11:46:02.197Z,1.67
2022-09-23T11:48:48.265Z,1.40
2022-09-23T11:51:38.298Z,1.50
2022-09-23T11:54:28.714Z,1.85
2022-09-23T11:57:01.693Z,1.45
2022-09-23T12:02:20.728Z,1.67
2022-09-23T12:05:03.125Z,1.88
2022-09-23T12:07:54.915Z,1.47
2022-09-23T12:10:23.920Z,1.23
2022-09-23T12:13:07.449Z,1.20
2022-09-23T12:15:42.951Z,1.20
2022-09-23T12:18:28.520Z,1.25
2022-09-23T12:21:49.046Z,1.65
2022-09-23T12:24:55.918Z,1.77
2022-09-23T12:27:32.144Z,1.58
2022-09-23T12:30:03.677Z,1.30
2022-09-23T12:32:31.854Z,1.33
2022-09-23T12:35:00.724Z,1.35
2022-09-23T12:37:37.393Z,1.50
2022-09-23T12:40:31.322Z,1.17
2022-09-23T12:43:02.631Z,1.35
2022-09-23T12:45:33.972Z,1.10
2022-09-23T12:48:25.623Z,1.40
2022-09-23T12:51:18.754Z,1.30
2022-09-23T12:53:52.748Z,1.60
2022-09-23T12:56:32.433Z,1.40
2022-09-23T12:59:20.674Z,1.45
2022-09-23T13:01:48.630Z,1.30
2022-09-23T13:04:46.309Z,1.30
2022-09-23T13:07:23.737Z,1.50
2022-09-23T13:09:53.884Z,1.45
2022-09-23T13:12:29.469Z,1.42
2022-09-23T13:15:00.907Z,1.80
2022-09-23T13:17:36.498Z,1.55
2022-09-23T13:20:19.777Z,1.52
2022-09-23T13:22:50.278Z,1.27
2022-09-23T13:25:29.893Z,1.20
2022-09-23T13:28:01.848Z,1.55
2022-09-23T13:30:29.179Z,1.52
2022-09-23T13:33:12.886Z,1.20
2022-09-23T13:35:45.032Z,1.33
2022-09-23T13:38:21.314Z,1.00
2022-09-23T13:40:49.472Z,1.20
2022-09-23T13:43:25.552Z,1.40
2022-09-23T13:45:53.057Z,1.40
2022-09-23T13:48:24.084Z,1.35
2022-09-23T13:50:56.311Z,1.50
2022-09-23T13:53:33.198Z,1.52
2022-09-23T13:56:03.949Z,1.50
2022-09-23T13:58:32.895Z,1.20
2022-09-23T14:01:01.561Z,1.40
2022-09-23T14:03:40.245Z,1.25
2022-09-23T14:06:15.216Z,1.00
2022-09-23T14:08:46.471Z,1.20
2022-09-23T14:11:37.447Z,1.20
2022-09-23T14:14:08.157Z,0.93
2022-09-23T14:16:41.096Z,1.20
2022-09-23T14:19:17.042Z,1.15
2022-09-23T14:21:47.919Z,1.60
2022-09-23T14:24:31.021Z,1.27
2022-09-23T14:27:04.088Z,1.40
2022-09-23T14:29:34.341Z,1.20
2022-09-23T14:32:05.763Z,1.38
2022-09-23T14:34:53.258Z,1.27
2022-09-23T14:37:39.045Z,1.30
2022-09-23T14:40:14.402Z,1.27
2022-09-23T14:42:46.616Z,1.02
2022-09-23T14:45:25.631Z,1.90
2022-09-23T14:48:00.125Z,1.50
2022-09-23T14:50:47.806Z,1.02
2022-09-23T14:53:27.137Z,1.15
2022-09-23T14:56:00.243Z,1.20
2022-09-23T14:58:28.912Z,1.20
2022-09-23T15:01:01.092Z,1.67
2022-09-23T15:03:29.263Z,1.27
2022-09-23T15:06:08.492Z,1.40
2022-09-23T15:08:38.531Z,1.10
2022-09-23T15:11:09.679Z,1.30
2022-09-23T15:13:44.711Z,1.27
2022-09-23T15:16:15.807Z,1.42
2022-09-23T15:18:47.001Z,1.40
2022-09-23T15:21:22.093Z,1.20
2022-09-23T15:23:56.894Z,1.30
2022-09-23T15:26:45.133Z,1.30
2022-09-23T15:29:12.335Z,1.20
2022-09-23T15:31:39.584Z,1.40
2022-09-23T15:34:06.880Z,1.20
2022-09-23T15:36:35.168Z,1.25
2022-09-23T15:39:04.284Z,1.00
2022-09-23T15:41:33.768Z,1.30
2022-09-23T15:44:22.086Z,1.13
2022-09-23T15:46:52.093Z,1.60
2022-09-23T15:49:47.455Z,1.40
2022-09-23T15:52:16.123Z,1.63
2022-09-23T15:54:46.550Z,1.95
2022-09-23T15:57:13.835Z,1.13
2022-09-23T15:59:41.234Z,1.50
2022-09-23T16:02:18.509Z,1.10
2022-09-23T16:04:50.645Z,1.27
2022-09-23T16:07:19.894Z,1.30
2022-09-23T16:09:47.047Z,1.35
2022-09-23T16:12:14.821Z,1.30
2022-09-23T16:14:41.918Z,1.50
2022-09-23T16:17:13.449Z,1.70
2022-09-23T16:19:40.622Z,1.52
2022-09-23T16:22:07.941Z,1.30
2022-09-23T16:24:35.180Z,1.55
2022-09-23T16:27:07.976Z,1.60
2022-09-23T16:29:35.270Z,1.83
2022-09-23T16:32:02.695Z,1.42
2022-09-23T16:34:30.008Z,1.70
2022-09-23T16:36:57.484Z,1.67
2022-09-23T16:39:24.836Z,1.70
2022-09-23T16:41:52.878Z,1.60
2022-09-23T16:44:21.375Z,2.38
2022-09-23T16:46:48.531Z,2.20
2022-09-23T16:49:15.824Z,1.40
2022-09-23T16:51:43.384Z,1.38
2022-09-23T16:54:12.480Z,1.83
2022-09-23T16:56:45.428Z,1.60
2022-09-23T17:01:59.706Z,1.55
2022-09-23T17:04:27.909Z,1.50
2022-09-23T17:06:56.139Z,1.33
2022-09-23T17:09:26.446Z,1.67
2022-09-23T17:12:27.959Z,1.42
2022-09-23T17:14:55.613Z,1.58
2022-09-23T17:17:22.881Z,1.50
2022-09-23T17:19:49.984Z,1.88
2022-09-23T17:22:17.167Z,1.92
2022-09-23T17:24:44.268Z,1.40
2022-09-23T17:27:11.580Z,1.50
2022-09-23T17:29:38.680Z,1.35
2022-09-23T17:32:05.798Z,1.40
2022-09-23T17:34:33.639Z,1.50
2022-09-23T17:37:01.124Z,1.30
2022-09-23T17:39:28.583Z,1.45
2022-09-23T17:41:58.739Z,1.10
2022-09-23T17:44:26.655Z,1.40
2022-09-23T17:46:53.987Z,1.30
2022-09-23T17:49:24.284Z,1.30
2022-09-23T17:51:51.552Z,1.10
2022-09-23T17:54:18.761Z,0.93
2022-09-23T17:56:45.919Z,0.82
2022-09-23T17:59:13.249Z,1.00
2022-09-23T18:01:40.580Z,1.00
2022-09-23T18:04:07.833Z,1.00
2022-09-23T18:06:36.238Z,1.35
2022-09-23T18:09:06.316Z,1.00
2022-09-23T18:11:37.022Z,1.48
2022-09-23T18:14:15.540Z,1.35
2022-09-23T18:16:44.737Z,1.27
2022-09-23T18:19:14.391Z,1.38
2022-09-23T18:21:48.079Z,1.40
2022-09-23T18:27:02.873Z,1.75
2022-09-23T18:29:30.331Z,2.10
2022-09-23T18:31:59.009Z,1.67
2022-09-23T18:34:26.260Z,2.00
2022-09-23T18:36:56.279Z,2.25
2022-09-23T18:39:23.634Z,2.80
2022-09-23T18:41:51.248Z,2.63
2022-09-23T18:44:20.139Z,1.75
2022-09-23T18:46:47.351Z,2.30
2022-09-23T18:49:33.042Z,2.08
2022-09-23T18:52:00.251Z,2.70
2022-09-23T18:54:29.183Z,3.10
2022-09-23T18:56:57.674Z,2.60
2022-09-23T18:59:29.181Z,2.70
2022-09-23T19:01:57.612Z,3.00
2022-09-23T19:04:26.686Z,3.03
2022-09-23T19:06:56.659Z,3.10
2022-09-23T19:09:24.071Z,3.00
2022-09-23T19:11:52.675Z,2.97
2022-09-23T19:14:20.614Z,3.63
2022-09-23T19:16:49.353Z,3.92
2022-09-23T19:19:16.730Z,3.00
2022-09-23T19:21:43.935Z,2.72
2022-09-23T19:24:15.823Z,3.00
2022-09-23T19:26:44.262Z,3.37
2022-09-23T19:29:15.800Z,3.05
2022-09-23T19:31:43.600Z,3.17
2022-09-23T19:34:18.023Z,2.97
2022-09-23T19:36:47.231Z,2.85
2022-09-23T19:39:25.295Z,2.40
2022-09-23T19:41:56.184Z,3.00
2022-09-23T19:44:25.363Z,3.33
2022-09-23T19:46:56.324Z,3.15
2022-09-23T19:49:25.481Z,3.55
2022-09-23T19:51:56.239Z,3.25
2022-09-23T19:54:26.749Z,3.30
2022-09-23T19:56:54.223Z,3.15
2022-09-23T19:59:21.409Z,2.92
2022-09-23T20:01:49.282Z,2.50
2022-09-23T20:04:16.989Z,2.30
2022-09-23T20:06:46.202Z,2.30
2022-09-23T20:09:13.849Z,2.63
2022-09-23T20:11:43.335Z,2.35
2022-09-23T20:14:11.283Z,2.50
2022-09-23T20:16:38.807Z,2.53
2022-09-23T20:19:06.487Z,2.45
2022-09-23T20:21:34.445Z,2.25
2022-09-23T20:24:02.580Z,3.03
2022-09-23T20:26:48.047Z,2.30
2022-09-23T20:29:15.354Z,4.20
2022-09-23T20:31:42.711Z,2.95
2022-09-23T20:34:11.054Z,2.55
2022-09-23T20:36:41.545Z,2.13
2022-09-23T20:39:10.305Z,1.90
2022-09-23T20:41:39.570Z,2.03
2022-09-23T20:44:13.108Z,2.42
2022-09-23T20:46:46.751Z,3.38
2022-09-23T20:49:16.382Z,3.58
2022-09-23T20:51:43.556Z,2.63
2022-09-23T20:54:12.246Z,3.08
2022-09-23T20:56:39.547Z,2.10
2022-09-23T20:59:06.945Z,2.25
2022-09-23T21:01:35.963Z,2.30
2022-09-23T21:04:06.024Z,2.28
2022-09-23T21:06:35.631Z,2.08
2022-09-23T21:09:03.448Z,1.80
2022-09-23T21:11:32.262Z,2.05
2022-09-23T21:14:00.607Z,1.80
2022-09-23T21:16:28.594Z,1.92
2022-09-23T21:18:55.786Z,1.80
2022-09-23T21:21:23.009Z,1.95
2022-09-23T21:23:51.276Z,2.10
2022-09-23T21:26:21.092Z,3.25
2022-09-23T21:28:53.099Z,2.40
2022-09-23T21:31:23.554Z,1.95
2022-09-23T21:34:04.265Z,2.30
2022-09-23T21:36:33.802Z,1.90
2022-09-23T21:39:04.658Z,1.75
2022-09-23T21:41:32.561Z,1.70
2022-09-23T21:44:00.871Z,1.70
2022-09-23T21:46:29.084Z,1.92
2022-09-23T21:48:57.655Z,1.60
2022-09-23T21:51:29.842Z,1.88
2022-09-23T21:53:58.546Z,1.83
2022-09-23T21:56:31.520Z,2.30
2022-09-23T21:59:00.147Z,2.13
2022-09-23T22:01:29.934Z,2.20
2022-09-23T22:03:59.293Z,2.28
2022-09-23T22:06:28.649Z,1.92
2022-09-23T22:08:59.964Z,1.73
2022-09-23T22:11:51.539Z,2.47
2022-09-23T22:14:21.079Z,1.90
2022-09-23T22:16:48.355Z,1.50
2022-09-23T22:19:15.791Z,1.30
2022-09-23T22:21:45.664Z,1.58
2022-09-23T22:24:13.357Z,1.42
2022-09-23T22:26:43.228Z,1.15
2022-09-23T22:29:32.838Z,1.40
2022-09-23T22:32:20.352Z,1.38
2022-09-23T22:34:52.551Z,1.30
2022-09-23T22:37:34.320Z,1.40
2022-09-23T22:40:06.080Z,1.60
2022-09-23T22:42:33.645Z,1.70
2022-09-23T22:45:00.859Z,1.42
2022-09-23T22:47:28.102Z,1.45
2022-09-23T22:49:55.691Z,1.48
2022-09-23T22:52:24.732Z,1.40
2022-09-23T22:54:52.704Z,1.10
2022-09-23T22:57:20.324Z,1.10
2022-09-23T22:59:50.682Z,1.10
2022-09-23T23:02:20.256Z,1.35
2022-09-23T23:04:48.542Z,1.38
2022-09-23T23:07:21.935Z,1.10
2022-09-23T23:09:52.671Z,1.20
2022-09-23T23:12:20.755Z,1.30
2022-09-23T23:14:49.428Z,1.40
2022-09-23T23:17:17.788Z,1.10
2022-09-23T23:19:45.269Z,1.33
2022-09-23T23:22:12.492Z,1.10
2022-09-23T23:24:40.029Z,1.33
2022-09-23T23:27:07.205Z,1.20
2022-09-23T23:29:34.364Z,1.20
2022-09-23T23:32:01.872Z,1.20
2022-09-23T23:34:28.969Z,1.33
2022-09-23T23:36:56.179Z,1.13
2022-09-23T23:39:24.910Z,1.20
2022-09-23T23:41:56.455Z,1.00
2022-09-23T23:44:25.538Z,1.10
2022-09-23T23:46:53.837Z,1.40
2022-09-23T23:49:21.719Z,1.10
2022-09-23T23:51:49.038Z,1.10
2022-09-23T23:54:16.513Z,1.17
2022-09-23T23:56:43.628Z,1.25
2022-09-23T23:59:10.932Z,2.00
